createdAt,value
2022-09-20T00:01:54.819Z,101972.47
2022-09-20T00:04:21.911Z,101968.13
2022-09-20T00:06:48.753Z,101973.31
2022-09-20T00:09:15.653Z,101974.19
2022-09-20T00:11:45.643Z,101972.44
2022-09-20T00:14:18.654Z,101962.09
2022-09-20T00:16:45.580Z,101975.94
2022-09-20T00:19:23.153Z,101976.78
2022-09-20T00:21:58.015Z,101969.84
2022-09-20T00:24:27.077Z,101969.84
2022-09-20T00:26:56.256Z,101972.44
2022-09-20T00:29:28.230Z,101976.78
2022-09-20T00:31:58.408Z,101974.19
2022-09-20T00:34:43.839Z,101976.78
2022-09-20T00:37:12.416Z,101975.91
2022-09-20T00:39:39.289Z,101980.22
2022-09-20T00:42:08.575Z,101981.09
2022-09-20T00:45:03.719Z,101964.69
2022-09-20T00:47:39.806Z,101975.03
2022-09-20T00:50:38.201Z,101981.97
2022-09-20T00:53:27.460Z,101978.50
2022-09-20T00:56:29.797Z,101974.16
2022-09-20T00:59:19.835Z,101978.50
2022-09-20T01:02:03.799Z,101976.75
2022-09-20T01:04:30.813Z,101977.63
2022-09-20T01:07:04.591Z,101978.47
2022-09-20T01:09:36.058Z,101977.59
2022-09-20T01:12:14.384Z,101969.81
2022-09-20T01:14:44.122Z,101970.66
2022-09-20T01:17:16.508Z,101969.81
2022-09-20T01:19:50.102Z,101981.06
2022-09-20T01:22:23.705Z,101978.47
2022-09-20T01:25:21.725Z,101972.41
2022-09-20T01:28:08.228Z,101974.13
2022-09-20T01:30:59.597Z,101975.00
2022-09-20T01:33:39.779Z,101980.19
2022-09-20T01:36:29.860Z,101974.13
2022-09-20T01:39:01.532Z,101977.59
2022-09-20T01:41:44.681Z,101981.91
2022-09-20T01:44:40.620Z,101980.19
2022-09-20T01:47:25.248Z,101978.44
2022-09-20T01:50:11.837Z,101974.13
2022-09-20T01:53:13.050Z,101982.78
2022-09-20T01:56:13.775Z,101980.19
2022-09-20T01:58:43.274Z,101985.38
2022-09-20T02:01:55.737Z,101987.09
2022-09-20T02:04:45.436Z,101989.72
2022-09-20T02:07:31.101Z,101984.53
2022-09-20T02:10:19.786Z,101992.28
2022-09-20T02:12:56.648Z,101995.72
2022-09-20T02:15:36.604Z,101991.44
2022-09-20T02:18:20.229Z,101991.44
2022-09-20T02:21:02.505Z,101994.03
2022-09-20T02:23:29.369Z,101994.03
2022-09-20T02:26:14.667Z,101989.69
2022-09-20T02:28:57.224Z,101981.03
2022-09-20T02:31:30.617Z,101985.34
2022-09-20T02:34:28.677Z,101975.84
2022-09-20T02:37:02.956Z,101973.25
2022-09-20T02:39:47.384Z,101967.22
2022-09-20T02:42:38.187Z,101971.53
2022-09-20T02:45:21.139Z,101974.97
2022-09-20T02:47:50.439Z,101967.22
2022-09-20T02:50:36.782Z,101976.72
2022-09-20T02:53:33.009Z,101968.06
2022-09-20T02:56:26.435Z,101962.88
2022-09-20T02:59:19.628Z,101972.41
2022-09-20T03:02:34.366Z,101963.72
2022-09-20T03:05:39.073Z,101970.66
2022-09-20T03:08:47.622Z,101974.97
2022-09-20T03:11:47.175Z,101971.53
2022-09-20T03:14:30.717Z,101964.59
2022-09-20T03:17:09.889Z,101959.41
2022-09-20T03:20:03.782Z,101966.31
2022-09-20T03:22:58.532Z,101967.19
2022-09-20T03:26:03.187Z,101966.34
2022-09-20T03:28:56.238Z,101961.16
2022-09-20T03:31:40.638Z,101957.69
2022-09-20T03:34:28.341Z,101963.78
2022-09-20T03:37:15.327Z,101974.13
2022-09-20T03:40:22.199Z,101980.19
2022-09-20T03:43:00.813Z,101982.78
2022-09-20T03:46:00.175Z,101972.41
2022-09-20T03:48:50.567Z,101973.28
2022-09-20T03:51:33.583Z,101968.09
2022-09-20T03:54:42.038Z,101974.16
2022-09-20T03:57:20.051Z,101972.41
2022-09-20T04:00:01.806Z,101974.16
2022-09-20T04:02:29.367Z,101975.00
2022-09-20T04:05:10.500Z,101975.84
2022-09-20T04:08:17.242Z,101973.25
2022-09-20T04:11:13.145Z,101987.13
2022-09-20T04:13:51.117Z,101981.94
2022-09-20T04:16:43.221Z,101979.34
2022-09-20T04:20:00.976Z,101977.59
2022-09-20T04:22:29.821Z,101980.19
2022-09-20T04:25:27.818Z,101973.25
2022-09-20T04:28:04.690Z,101969.81
2022-09-20T04:30:39.094Z,101969.81
2022-09-20T04:33:18.646Z,101965.53
2022-09-20T04:36:28.994Z,101976.75
2022-09-20T04:39:23.929Z,101968.09
2022-09-20T04:42:22.004Z,101982.81
2022-09-20T04:45:42.774Z,101978.50
2022-09-20T04:48:40.585Z,101979.34
2022-09-20T04:51:19.698Z,101979.38
2022-09-20T04:54:07.614Z,101991.47
2022-09-20T04:56:46.065Z,101981.97
2022-09-20T04:59:55.566Z,101980.22
2022-09-20T05:02:52.796Z,101995.78
2022-09-20T05:05:28.529Z,101997.50
2022-09-20T05:08:32.810Z,102000.97
2022-09-20T05:11:02.683Z,101993.22
2022-09-20T05:13:42.203Z,102001.84
2022-09-20T05:16:23.179Z,101999.25
2022-09-20T05:19:08.849Z,102006.16
2022-09-20T05:21:57.082Z,101996.69
2022-09-20T05:24:42.727Z,102006.19
2022-09-20T05:27:31.368Z,102003.56
2022-09-20T05:30:10.433Z,102007.03
2022-09-20T05:33:00.936Z,102012.22
2022-09-20T05:35:39.189Z,102018.28
2022-09-20T05:38:19.854Z,102027.81
2022-09-20T05:41:07.662Z,102011.38
2022-09-20T05:43:42.908Z,102024.34
2022-09-20T05:46:31.324Z,102026.09
2022-09-20T05:49:24.983Z,102028.66
2022-09-20T05:52:06.945Z,102033.00
2022-09-20T05:54:49.342Z,102028.66
2022-09-20T05:58:00.717Z,102033.00
2022-09-20T06:00:38.596Z,102034.72
2022-09-20T06:03:30.632Z,102035.56
2022-09-20T06:06:19.032Z,102021.72
2022-09-20T06:09:25.054Z,102027.78
2022-09-20T06:12:07.091Z,102029.53
2022-09-20T06:15:12.417Z,102032.13
2022-09-20T06:17:48.209Z,102033.84
2022-09-20T06:20:33.808Z,102039.91
2022-09-20T06:23:03.494Z,102036.44
2022-09-20T06:25:34.745Z,102038.16
2022-09-20T06:28:08.204Z,102034.69
2022-09-20T06:30:43.480Z,102033.84
2022-09-20T06:33:32.347Z,102043.34
2022-09-20T06:36:29.679Z,102046.81
2022-09-20T06:39:30.343Z,102047.66
2022-09-20T06:41:58.067Z,102047.69
2022-09-20T06:44:24.973Z,102047.69
2022-09-20T06:46:54.692Z,102052.00
2022-09-20T06:49:22.394Z,102048.53
2022-09-20T06:51:52.502Z,102045.06
2022-09-20T06:54:21.327Z,102052.84
2022-09-20T06:56:50.181Z,102057.16
2022-09-20T06:59:17.265Z,102059.78
2022-09-20T07:01:44.701Z,102050.25
2022-09-20T07:04:11.795Z,102060.63
2022-09-20T07:06:38.739Z,102057.19
2022-09-20T07:09:06.554Z,102059.75
2022-09-20T07:11:34.361Z,102059.75
2022-09-20T07:14:01.894Z,102064.03
2022-09-20T07:16:29.447Z,102066.63
2022-09-20T07:18:56.961Z,102056.25
2022-09-20T07:21:24.423Z,102072.66
2022-09-20T07:23:51.489Z,102070.94
2022-09-20T07:26:28.449Z,102074.38
2022-09-20T07:28:57.336Z,102075.25
2022-09-20T07:31:26.588Z,102062.25
2022-09-20T07:33:53.761Z,102061.38
2022-09-20T07:36:21.023Z,102064.81
2022-09-20T07:38:53.162Z,102062.19
2022-09-20T07:41:22.838Z,102063.94
2022-09-20T07:43:51.062Z,102062.16
2022-09-20T07:46:18.223Z,102064.75
2022-09-20T07:48:45.065Z,102068.19
2022-09-20T07:51:33.716Z,102069.88
2022-09-20T07:54:00.743Z,102073.31
2022-09-20T07:56:27.724Z,102069.81
2022-09-20T07:58:54.804Z,102068.94
2022-09-20T08:01:22.810Z,102070.66
2022-09-20T08:03:50.079Z,102072.34
2022-09-20T08:06:18.533Z,102075.75
2022-09-20T08:08:45.405Z,102070.56
2022-09-20T08:11:16.206Z,102071.44
2022-09-20T08:14:07.734Z,102083.50
2022-09-20T08:16:41.934Z,102077.41
2022-09-20T08:19:10.795Z,102089.53
2022-09-20T08:21:39.797Z,102089.53
2022-09-20T08:24:06.869Z,102088.63
2022-09-20T08:26:35.879Z,102082.56
2022-09-20T08:29:05.854Z,102092.06
2022-09-20T08:31:36.866Z,102089.44
2022-09-20T08:34:06.690Z,102093.72
2022-09-20T08:36:36.978Z,102102.34
2022-09-20T08:42:04.645Z,102092.72
2022-09-20T08:44:35.686Z,102093.59
2022-09-20T08:47:25.407Z,102091.78
2022-09-20T08:49:57.389Z,102094.38
2022-09-20T08:52:37.650Z,102092.59
2022-09-20T08:55:17.879Z,102097.78
2022-09-20T08:57:50.287Z,102104.63
2022-09-20T09:00:20.174Z,102105.44
2022-09-20T09:02:47.582Z,102102.81
2022-09-20T09:05:28.321Z,102096.69
2022-09-20T09:07:55.374Z,102095.81
2022-09-20T09:10:22.335Z,102097.47
2022-09-20T09:12:49.820Z,102098.28
2022-09-20T09:15:34.122Z,102100.81
2022-09-20T09:18:01.426Z,102108.56
2022-09-20T09:20:28.408Z,102102.47
2022-09-20T09:23:05.046Z,102096.34
2022-09-20T09:25:37.356Z,102101.50
2022-09-20T09:28:14.439Z,102099.69
2022-09-20T09:30:46.982Z,102092.69
2022-09-20T09:33:18.416Z,102095.25
2022-09-20T09:35:56.533Z,102093.47
2022-09-20T09:38:30.307Z,102092.56
2022-09-20T09:41:05.988Z,102083.81
2022-09-20T09:43:35.849Z,102082.03
2022-09-20T09:46:23.836Z,102089.81
2022-09-20T09:49:10.092Z,102085.38
2022-09-20T09:51:39.174Z,102085.34
2022-09-20T09:54:08.194Z,102080.16
2022-09-20T09:57:24.516Z,102086.13
2022-09-20T10:00:06.586Z,102085.28
2022-09-20T10:02:48.161Z,102087.91
2022-09-20T10:05:22.497Z,102091.34
2022-09-20T10:07:59.688Z,102095.66
2022-09-20T10:10:36.128Z,102088.75
2022-09-20T10:13:29.695Z,102096.56
2022-09-20T10:16:08.199Z,102092.19
2022-09-20T10:18:53.807Z,102095.69
2022-09-20T10:21:33.093Z,102089.63
2022-09-20T10:24:04.500Z,102105.25
2022-09-20T10:26:53.402Z,102110.50
2022-09-20T10:29:39.262Z,102104.47
2022-09-20T10:32:14.932Z,102094.13
2022-09-20T10:34:57.315Z,102107.09
2022-09-20T10:37:33.187Z,102106.25
2022-09-20T10:40:51.055Z,102103.69
2022-09-20T10:43:43.708Z,102104.56
2022-09-20T10:46:31.991Z,102109.81
2022-09-20T10:49:31.050Z,102105.47
2022-09-20T10:52:13.031Z,102107.22
2022-09-20T10:55:18.839Z,102101.16
2022-09-20T10:57:55.771Z,102102.06
2022-09-20T11:01:04.242Z,102108.13
2022-09-20T11:04:01.221Z,102114.19
2022-09-20T11:06:46.403Z,102109.88
2022-09-20T11:09:19.674Z,102107.28
2022-09-20T11:11:50.723Z,102117.69
2022-09-20T11:14:22.970Z,102115.94
2022-09-20T11:17:12.793Z,102117.69
2022-09-20T11:19:42.734Z,102109.00
2022-09-20T11:22:22.689Z,102105.56
2022-09-20T11:24:58.946Z,102107.28
2022-09-20T11:27:37.788Z,102113.38
2022-09-20T11:30:13.391Z,102109.00
2022-09-20T11:32:53.188Z,102115.09
2022-09-20T11:35:33.411Z,102118.56
2022-09-20T11:38:09.507Z,102120.25
2022-09-20T11:40:46.777Z,102118.47
2022-09-20T11:43:15.775Z,102123.66
2022-09-20T11:45:44.446Z,102117.56
2022-09-20T11:48:29.512Z,102118.44
2022-09-20T11:51:15.109Z,102122.75
2022-09-20T11:54:06.520Z,102124.41
2022-09-20T11:56:35.319Z,102118.28
2022-09-20T11:59:07.276Z,102115.66
2022-09-20T12:01:43.544Z,102108.69
2022-09-20T12:04:38.983Z,102116.44
2022-09-20T12:07:37.145Z,102113.78
2022-09-20T12:10:24.694Z,102118.91
2022-09-20T12:13:00.520Z,102112.78
2022-09-20T12:15:32.279Z,102114.47
2022-09-20T12:17:59.162Z,102118.78
2022-09-20T12:20:35.131Z,102126.56
2022-09-20T12:23:40.314Z,102123.94
2022-09-20T12:26:20.408Z,102121.28
2022-09-20T12:28:58.228Z,102123.91
2022-09-20T12:31:34.245Z,102112.63
2022-09-20T12:34:15.674Z,102115.19
2022-09-20T12:36:43.822Z,102110.81
2022-09-20T12:39:17.602Z,102102.16
2022-09-20T12:41:54.411Z,102109.06
2022-09-20T12:44:49.142Z,102113.34
2022-09-20T12:47:23.022Z,102101.22
2022-09-20T12:50:13.642Z,102117.69
2022-09-20T12:53:04.093Z,102109.06
2022-09-20T12:55:49.993Z,102095.13
2022-09-20T12:58:24.371Z,102095.13
2022-09-20T13:01:14.323Z,102098.59
2022-09-20T13:03:41.764Z,102103.78
2022-09-20T13:06:12.375Z,102100.28
2022-09-20T13:08:48.024Z,102107.22
2022-09-20T13:11:23.441Z,102104.59
2022-09-20T13:14:07.082Z,102108.06
2022-09-20T13:16:39.943Z,102098.50
2022-09-20T13:19:12.123Z,102101.09
2022-09-20T13:21:45.991Z,102101.09
2022-09-20T13:24:19.104Z,102105.41
2022-09-20T13:26:48.177Z,102096.75
2022-09-20T13:29:33.551Z,102096.69
2022-09-20T13:32:29.424Z,102101.00
2022-09-20T13:35:18.318Z,102095.81
2022-09-20T13:37:45.255Z,102101.00
2022-09-20T13:40:25.441Z,102098.38
2022-09-20T13:43:12.934Z,102093.13
2022-09-20T13:45:42.865Z,102096.53
2022-09-20T13:48:10.033Z,102092.19
2022-09-20T13:50:42.013Z,102086.94
2022-09-20T13:53:39.362Z,102082.56
2022-09-20T13:56:20.056Z,102075.56
2022-09-20T13:58:48.342Z,102087.69
2022-09-20T14:01:32.756Z,102080.72
2022-09-20T14:04:15.674Z,102076.34
2022-09-20T14:06:42.851Z,102084.19
2022-09-20T14:09:20.594Z,102083.28
2022-09-20T14:11:48.000Z,102083.28
2022-09-20T14:14:19.840Z,102086.75
2022-09-20T14:16:49.937Z,102079.81
2022-09-20T14:19:20.307Z,102085.88
2022-09-20T14:21:48.395Z,102082.41
2022-09-20T14:24:15.626Z,102075.47
2022-09-20T14:27:00.195Z,102083.25
2022-09-20T14:29:30.799Z,102082.34
2022-09-20T14:32:00.535Z,102084.06
2022-09-20T14:34:27.908Z,102074.53
2022-09-20T14:37:06.330Z,102076.28
2022-09-20T14:39:50.962Z,102078.91
2022-09-20T14:42:28.867Z,102074.59
2022-09-20T14:44:56.076Z,102071.13
2022-09-20T14:47:38.485Z,102083.28
2022-09-20T14:50:33.646Z,102084.13
2022-09-20T14:53:22.339Z,102077.19
2022-09-20T14:55:57.160Z,102086.75
2022-09-20T14:58:26.259Z,102078.06
2022-09-20T15:01:05.942Z,102080.69
2022-09-20T15:03:39.050Z,102078.97
2022-09-20T15:06:10.205Z,102074.69
2022-09-20T15:08:39.871Z,102079.88
2022-09-20T15:11:15.110Z,102082.56
2022-09-20T15:13:42.324Z,102080.03
2022-09-20T15:16:12.557Z,102080.88
2022-09-20T15:18:41.683Z,102084.34
2022-09-20T15:21:11.340Z,102083.47
2022-09-20T15:23:39.303Z,102088.66
2022-09-20T15:26:08.890Z,102083.44
2022-09-20T15:28:35.823Z,102077.41
2022-09-20T15:31:02.775Z,102081.69
2022-09-20T15:33:32.078Z,102075.63
2022-09-20T15:35:59.433Z,102079.06
2022-09-20T15:38:27.103Z,102085.13
2022-09-20T15:40:54.550Z,102082.53
2022-09-20T15:43:28.010Z,102083.38
2022-09-20T15:46:00.358Z,102090.31
2022-09-20T15:48:29.992Z,102084.25
2022-09-20T15:51:07.304Z,102084.25
2022-09-20T15:53:39.831Z,102086.84
2022-09-20T15:56:24.522Z,102083.44
2022-09-20T15:58:58.976Z,102086.91
2022-09-20T16:01:38.168Z,102095.56
2022-09-20T16:04:17.317Z,102083.44
2022-09-20T16:06:46.360Z,102091.22
2022-09-20T16:09:13.767Z,102096.47
2022-09-20T16:11:41.225Z,102101.66
2022-09-20T16:14:08.298Z,102098.19
2022-09-20T16:16:40.040Z,102092.13
2022-09-20T16:19:20.694Z,102096.44
2022-09-20T16:21:57.694Z,102098.19
2022-09-20T16:24:28.129Z,102098.19
2022-09-20T16:26:55.403Z,102104.25
2022-09-20T16:29:22.521Z,102094.72
2022-09-20T16:31:50.433Z,102099.91
2022-09-20T16:34:36.625Z,102094.72
2022-09-20T16:37:05.851Z,102097.34
2022-09-20T16:39:33.426Z,102103.41
2022-09-20T16:42:06.169Z,102101.69
2022-09-20T16:44:35.787Z,102106.88
2022-09-20T16:47:07.081Z,102097.34
2022-09-20T16:49:35.425Z,102106.88
2022-09-20T16:52:05.185Z,102106.97
2022-09-20T16:54:33.754Z,102114.81
2022-09-20T16:57:01.402Z,102110.53
2022-09-20T16:59:28.344Z,102105.38
2022-09-20T17:01:55.554Z,102113.13
2022-09-20T17:04:22.524Z,102114.91
2022-09-20T17:06:51.374Z,102118.41
2022-09-20T17:09:18.859Z,102115.78
2022-09-20T17:11:49.709Z,102120.16
2022-09-20T17:14:18.812Z,102127.19
2022-09-20T17:16:49.453Z,102128.00
2022-09-20T17:19:19.177Z,102128.03
2022-09-20T17:21:50.101Z,102125.47
2022-09-20T17:24:19.320Z,102130.72
2022-09-20T17:26:46.489Z,102130.69
2022-09-20T17:29:16.229Z,102133.34
2022-09-20T17:31:48.811Z,102144.63
2022-09-20T17:34:21.494Z,102143.78
2022-09-20T17:36:49.454Z,102149.03
2022-09-20T17:39:16.898Z,102149.03
2022-09-20T17:41:46.554Z,102144.75
2022-09-20T17:44:14.130Z,102161.31
2022-09-20T17:46:43.412Z,102150.03
2022-09-20T17:49:15.123Z,102154.44
2022-09-20T17:51:47.163Z,102153.63
2022-09-20T17:54:15.378Z,102157.13
2022-09-20T17:56:46.339Z,102164.13
2022-09-20T17:59:16.229Z,102165.03
2022-09-20T18:01:48.089Z,102167.69
2022-09-20T18:04:15.933Z,102170.31
2022-09-20T18:06:48.210Z,102172.97
2022-09-20T18:09:17.273Z,102172.16
2022-09-20T18:11:49.991Z,102186.97
2022-09-20T18:14:20.341Z,102178.34
2022-09-20T18:16:47.451Z,102189.69
2022-09-20T18:19:16.212Z,102186.28
2022-09-20T18:21:43.655Z,102194.16
2022-09-20T18:24:11.428Z,102193.31
2022-09-20T18:26:39.139Z,102198.53
2022-09-20T18:29:11.842Z,102200.31
2022-09-20T18:31:43.146Z,102196.94
2022-09-20T18:34:18.044Z,102198.75
2022-09-20T18:36:48.402Z,102208.34
2022-09-20T18:39:15.378Z,102201.44
2022-09-20T18:41:43.995Z,102210.16
2022-09-20T18:44:14.192Z,102208.47
2022-09-20T18:46:41.635Z,102209.44
2022-09-20T18:49:10.232Z,102210.31
2022-09-20T18:51:40.156Z,102214.72
2022-09-20T18:54:10.594Z,102216.47
2022-09-20T18:56:40.088Z,102224.34
2022-09-20T18:59:13.447Z,102215.72
2022-09-20T19:01:55.720Z,102227.03
2022-09-20T19:04:41.153Z,102221.00
2022-09-20T19:07:25.701Z,102224.53
2022-09-20T19:10:01.655Z,102224.56
2022-09-20T19:12:56.977Z,102227.22
2022-09-20T19:15:45.969Z,102235.88
2022-09-20T19:19:02.269Z,102238.53
2022-09-20T19:21:50.653Z,102242.00
2022-09-20T19:24:39.189Z,102239.44
2022-09-20T19:27:08.904Z,102249.88
2022-09-20T19:29:37.766Z,102250.78
2022-09-20T19:32:06.198Z,102248.22
2022-09-20T19:34:33.544Z,102254.28
2022-09-20T19:37:18.839Z,102249.09
2022-09-20T19:40:00.884Z,102255.19
2022-09-20T19:42:41.634Z,102256.94
2022-09-20T19:45:15.361Z,102263.91
2022-09-20T19:47:55.459Z,102269.09
2022-09-20T19:50:29.688Z,102269.97
2022-09-20T19:52:56.903Z,102273.44
2022-09-20T19:55:24.261Z,102279.53
2022-09-20T19:57:51.336Z,102269.13
2022-09-20T20:00:20.692Z,102271.75
2022-09-20T20:02:48.371Z,102272.59
2022-09-20T20:05:18.613Z,102274.34
2022-09-20T20:08:03.755Z,102271.72
2022-09-20T20:11:01.579Z,102278.69
2022-09-20T20:13:59.038Z,102287.31
2022-09-20T20:16:50.096Z,102288.19
2022-09-20T20:19:30.183Z,102292.53
2022-09-20T20:21:59.611Z,102290.81
2022-09-20T20:24:52.744Z,102291.66
2022-09-20T20:27:20.840Z,102294.25
2022-09-20T20:29:48.028Z,102284.75
2022-09-20T20:32:17.152Z,102290.78
2022-09-20T20:34:44.464Z,102293.34
2022-09-20T20:37:11.945Z,102290.78
2022-09-20T20:39:41.951Z,102300.28
2022-09-20T20:42:17.191Z,102310.66
2022-09-20T20:44:45.606Z,102301.97
2022-09-20T20:47:16.698Z,102311.50
2022-09-20T20:49:43.683Z,102312.34
2022-09-20T20:52:11.255Z,102320.16
2022-09-20T20:54:39.860Z,102326.19
2022-09-20T20:57:08.129Z,102321.88
2022-09-20T20:59:35.062Z,102314.94
2022-09-20T21:02:07.121Z,102318.38
2022-09-20T21:04:38.125Z,102329.63
2022-09-20T21:07:05.376Z,102323.56
2022-09-20T21:09:32.245Z,102331.34
2022-09-20T21:12:05.176Z,102335.66
2022-09-20T21:14:37.325Z,102332.19
2022-09-20T21:17:07.711Z,102337.38
2022-09-20T21:19:36.319Z,102340.81
2022-09-20T21:22:03.295Z,102327.81
2022-09-20T21:24:35.771Z,102341.66
2022-09-20T21:27:12.701Z,102338.22
2022-09-20T21:29:42.939Z,102340.78
2022-09-20T21:32:09.886Z,102338.19
2022-09-20T21:34:40.731Z,102346.81
2022-09-20T21:37:07.840Z,102346.84
2022-09-20T21:39:36.731Z,102343.38
2022-09-20T21:42:07.306Z,102336.38
2022-09-20T21:44:34.525Z,102342.44
2022-09-20T21:47:02.559Z,102341.56
2022-09-20T21:49:32.497Z,102351.97
2022-09-20T21:51:59.605Z,102349.31
2022-09-20T21:54:28.355Z,102352.78
2022-09-20T21:57:09.065Z,102354.53
2022-09-20T21:59:35.914Z,102362.28
2022-09-20T22:02:02.866Z,102363.16
2022-09-20T22:04:31.730Z,102357.09
2022-09-20T22:07:01.505Z,102352.75
2022-09-20T22:09:28.413Z,102351.03
2022-09-20T22:11:56.114Z,102359.66
2022-09-20T22:14:26.873Z,102352.72
2022-09-20T22:16:53.848Z,102354.44
2022-09-20T22:19:20.908Z,102350.97
2022-09-20T22:21:51.413Z,102355.28
2022-09-20T22:24:20.046Z,102350.06
2022-09-20T22:26:49.250Z,102352.66
2022-09-20T22:29:23.585Z,102363.91
2022-09-20T22:31:52.120Z,102358.69
2022-09-20T22:34:25.841Z,102358.66
2022-09-20T22:36:54.104Z,102348.25
2022-09-20T22:39:26.969Z,102354.28
2022-09-20T22:41:55.995Z,102358.63
2022-09-20T22:44:24.336Z,102352.56
2022-09-20T22:46:51.751Z,102356.84
2022-09-20T22:49:21.243Z,102353.38
2022-09-20T22:51:52.699Z,102351.59
2022-09-20T22:54:19.793Z,102348.13
2022-09-20T22:56:46.945Z,102355.91
2022-09-20T22:59:16.043Z,102360.16
2022-09-20T23:01:49.648Z,102357.56
2022-09-20T23:04:19.933Z,102360.97
2022-09-20T23:06:58.434Z,102361.81
2022-09-20T23:09:31.088Z,102371.31
2022-09-20T23:12:06.071Z,102368.72
2022-09-20T23:14:36.807Z,102363.50
2022-09-20T23:17:03.812Z,102359.13
2022-09-20T23:19:30.689Z,102366.91
2022-09-20T23:21:59.792Z,102363.44
2022-09-20T23:24:30.720Z,102359.97
2022-09-20T23:26:57.728Z,102371.22
2022-09-20T23:29:26.738Z,102368.63
2022-09-20T23:31:54.439Z,102370.34
2022-09-20T23:34:26.760Z,102366.91
2022-09-20T23:36:56.864Z,102367.75
2022-09-20T23:39:26.494Z,102361.69
2022-09-20T23:41:54.459Z,102369.50
2022-09-20T23:44:26.933Z,102373.84
2022-09-20T23:47:08.376Z,102372.06
2022-09-20T23:49:56.079Z,102375.53
2022-09-20T23:52:27.588Z,102378.97
2022-09-20T23:55:02.898Z,102368.63
2022-09-20T23:57:33.637Z,102371.19
